Time;durP1;ratioP1;P1;durP2;ratioP2;P2;SDS_P1;SDS_P2;PMS_P1;PMS_P2;Temp;Humidity;BMP_temperature;BMP_pressure;BME280_temperature;BME280_humidity;BME280_pressure;Samples;Min_cycle;Max_cycle;Signal;HPM_P1;HPM_P2
2023/03/02 00:01:56;;;;;;;35.37;24.63;;;;;;;0.81;100.00;96261.78;5030077;28;102335;-62
2023/03/02 00:04:27;;;;;;;30.90;22.83;;;;;;;0.69;100.00;96270.34;5028497;28;104629;-62
2023/03/02 00:06:58;;;;;;;30.47;22.17;;;;;;;0.76;100.00;96268.56;5029154;27;101780;-62
2023/03/02 00:09:25;;;;;;;35.30;24.30;;;;;;;0.72;100.00;96267.34;5029616;27;102814;-62
2023/03/02 00:11:52;;;;;;;34.10;23.20;;;;;;;0.66;100.00;96265.50;5027312;28;105499;-62
2023/03/02 00:14:20;;;;;;;37.53;25.33;;;;;;;0.68;100.00;96256.47;5028124;28;101998;-62
2023/03/02 00:16:47;;;;;;;37.33;24.53;;;;;;;0.54;100.00;96259.16;5027420;28;105173;-62
2023/03/02 00:19:15;;;;;;;36.50;25.17;;;;;;;0.62;100.00;96261.66;5032706;27;102590;-62
2023/03/02 00:21:42;;;;;;;38.80;27.30;;;;;;;0.64;100.00;96259.66;5027814;28;103632;-62
2023/03/02 00:24:09;;;;;;;39.00;26.80;;;;;;;0.54;100.00;96261.78;5027670;28;105780;-62
2023/03/02 00:26:37;;;;;;;37.50;26.40;;;;;;;0.41;100.00;96267.75;5029115;27;101811;-62
2023/03/02 00:29:04;;;;;;;39.67;26.73;;;;;;;0.41;100.00;96262.53;5029695;27;102394;-62
2023/03/02 00:31:31;;;;;;;38.17;26.37;;;;;;;0.54;100.00;96253.94;5028643;28;103162;-62
2023/03/02 00:33:59;;;;;;;41.20;26.17;;;;;;;0.59;100.00;96260.22;5024328;28;101973;-62
2023/03/02 00:36:27;;;;;;;37.17;26.07;;;;;;;0.61;100.00;96258.22;5013955;28;105617;-63
2023/03/02 00:38:54;;;;;;;36.43;24.83;;;;;;;0.43;100.00;96257.09;5028923;28;102938;-62
2023/03/02 00:41:21;;;;;;;35.93;24.40;;;;;;;0.36;100.00;96261.47;5030992;28;102050;-62
2023/03/02 00:43:50;;;;;;;34.93;24.10;;;;;;;0.51;100.00;96265.59;5028633;27;103050;-62
2023/03/02 00:46:19;;;;;;;36.30;24.90;;;;;;;0.50;100.00;96258.75;5028796;28;102218;-62
2023/03/02 00:48:47;;;;;;;33.37;23.43;;;;;;;0.38;100.00;96249.00;5024016;28;105287;-62
2023/03/02 00:51:14;;;;;;;32.10;23.17;;;;;;;0.18;100.00;96250.69;5008278;28;105484;-63
2023/03/02 00:53:43;;;;;;;35.47;25.63;;;;;;;0.28;100.00;96249.34;5028470;28;101803;-62
2023/03/02 00:56:11;;;;;;;35.40;23.90;;;;;;;0.37;100.00;96240.38;5027406;28;105255;-62
2023/03/02 00:58:43;;;;;;;35.87;24.97;;;;;;;0.20;100.00;96239.03;5026942;28;105293;-62
2023/03/02 01:01:12;;;;;;;32.57;23.03;;;;;;;0.25;100.00;96233.22;5027263;28;101966;-62
2023/03/02 01:03:43;;;;;;;32.83;23.90;;;;;;;0.29;100.00;96232.66;5030617;28;105153;-62
2023/03/02 01:06:15;;;;;;;36.17;25.47;;;;;;;0.20;100.00;96235.59;5027980;28;101997;-63
2023/03/02 01:08:45;;;;;;;39.30;25.67;;;;;;;0.22;100.00;96238.84;5027990;28;105570;-63
2023/03/02 01:11:15;;;;;;;38.67;25.07;;;;;;;0.21;100.00;96238.03;5026435;28;105636;-63
2023/03/02 01:13:43;;;;;;;42.43;27.07;;;;;;;0.04;100.00;96228.03;5027334;28;101888;-63
2023/03/02 01:16:10;;;;;;;40.17;25.27;;;;;;;-0.01;100.00;96227.78;5028921;28;102325;-63
2023/03/02 01:18:38;;;;;;;39.70;26.93;;;;;;;0.01;100.00;96225.81;5028456;28;102615;-62
2023/03/02 01:21:08;;;;;;;35.37;24.37;;;;;;;0.11;100.00;96223.69;5027625;28;101799;-63
2023/03/02 01:23:35;;;;;;;34.83;24.50;;;;;;;0.13;100.00;96229.53;5029805;28;105865;-62
2023/03/02 01:26:04;;;;;;;38.17;25.70;;;;;;;-0.15;100.00;96220.88;5029649;27;102158;-63
2023/03/02 01:28:32;;;;;;;41.40;27.63;;;;;;;-0.05;100.00;96211.69;5028971;28;102587;-62
2023/03/02 01:31:01;;;;;;;35.27;25.87;;;;;;;-0.01;100.00;96210.31;5028247;28;105756;-63
2023/03/02 01:33:29;;;;;;;38.87;25.87;;;;;;;0.04;100.00;96217.59;5028052;28;101937;-62
2023/03/02 01:35:56;;;;;;;37.90;26.00;;;;;;;0.07;100.00;96219.84;5023664;28;105613;-62
2023/03/02 01:38:22;;;;;;;39.63;27.30;;;;;;;0.00;100.00;96219.78;5010650;28;105733;-63
2023/03/02 01:40:49;;;;;;;39.93;26.87;;;;;;;0.06;100.00;96224.25;5028611;28;101883;-63
2023/03/02 01:43:18;;;;;;;37.80;25.97;;;;;;;0.03;100.00;96215.97;5009418;28;105916;-62
2023/03/02 01:45:51;;;;;;;39.73;26.33;;;;;;;0.07;100.00;96219.84;5031495;28;103161;-62
2023/03/02 01:48:31;;;;;;;38.27;24.67;;;;;;;-0.12;100.00;96216.06;5026810;28;104938;-62
2023/03/02 01:51:00;;;;;;;40.53;26.60;;;;;;;0.01;100.00;96218.78;5009876;28;105717;-63
2023/03/02 01:53:31;;;;;;;39.13;25.37;;;;;;;0.03;100.00;96211.56;5013559;28;101811;-63
2023/03/02 01:56:01;;;;;;;38.90;27.07;;;;;;;0.09;100.00;96209.97;5014358;28;105264;-63
2023/03/02 01:58:32;;;;;;;39.50;26.13;;;;;;;-0.10;100.00;96203.59;5020244;28;105342;-63
2023/03/02 02:00:59;;;;;;;38.03;25.90;;;;;;;-0.09;100.00;96201.81;5030126;28;101815;-63
2023/03/02 02:03:28;;;;;;;45.63;28.00;;;;;;;0.01;100.00;96210.13;5026820;28;105304;-63
2023/03/02 02:06:04;;;;;;;39.77;27.83;;;;;;;0.02;100.00;96206.53;5015377;28;105316;-63
2023/03/02 02:08:32;;;;;;;42.37;27.07;;;;;;;-0.11;100.00;96198.56;5033509;28;101781;-62
2023/03/02 02:11:00;;;;;;;35.73;25.87;;;;;;;-0.08;100.00;96206.84;5030479;28;105385;-63
2023/03/02 02:13:29;;;;;;;41.37;27.43;;;;;;;0.01;100.00;96204.91;5027588;28;101896;-62
2023/03/02 02:15:56;;;;;;;36.43;25.43;;;;;;;0.07;100.00;96204.16;5015907;28;105774;-62
2023/03/02 02:18:23;;;;;;;39.57;26.37;;;;;;;-0.16;100.00;96199.13;5031480;28;103089;-62
2023/03/02 02:20:54;;;;;;;36.53;24.53;;;;;;;-0.29;100.00;96200.03;5031292;27;101841;-62
2023/03/02 02:23:28;;;;;;;35.77;25.47;;;;;;;-0.29;100.00;96202.66;5031055;28;105077;-63
2023/03/02 02:26:17;;;;;;;39.03;25.83;;;;;;;-0.36;100.00;96207.81;5031777;27;103239;-62
2023/03/02 02:28:56;;;;;;;47.10;29.73;;;;;;;-0.31;100.00;96208.06;5026129;28;101880;-62
2023/03/02 02:31:30;;;;;;;42.73;28.53;;;;;;;-0.36;100.00;96202.59;5012613;28;105736;-62
2023/03/02 02:34:04;;;;;;;40.87;25.37;;;;;;;-0.34;100.00;96192.75;5018994;28;101965;-62
2023/03/02 02:36:37;;;;;;;43.20;27.73;;;;;;;-0.20;100.00;96194.50;5014112;28;105123;-62
2023/03/02 02:39:14;;;;;;;42.00;27.30;;;;;;;-0.22;100.00;96194.66;5030095;28;106048;-63
2023/03/02 02:41:46;;;;;;;45.17;28.93;;;;;;;-0.23;100.00;96194.84;5029848;28;101840;-62
2023/03/02 02:44:16;;;;;;;46.43;29.10;;;;;;;-0.17;100.00;96196.72;5025795;28;103559;-62
2023/03/02 02:46:44;;;;;;;44.57;29.93;;;;;;;-0.21;100.00;96196.28;5009665;28;105780;-62
2023/03/02 02:49:26;;;;;;;46.30;30.20;;;;;;;-0.23;100.00;96191.44;5020650;28;101740;-62
2023/03/02 02:51:53;;;;;;;48.17;31.63;;;;;;;-0.23;100.00;96189.63;5009436;28;104224;-63
2023/03/02 02:54:21;;;;;;;47.90;30.90;;;;;;;0.09;100.00;96195.13;5021919;28;105073;-62
2023/03/02 02:56:53;;;;;;;51.10;31.57;;;;;;;0.06;100.00;96187.66;5011947;28;105770;-62
2023/03/02 02:59:27;;;;;;;50.63;31.50;;;;;;;0.12;100.00;96192.09;5023926;28;105414;-62
2023/03/02 03:01:57;;;;;;;49.40;30.93;;;;;;;0.11;100.00;96189.72;5011040;28;101947;-62
2023/03/02 03:04:27;;;;;;;51.97;32.00;;;;;;;0.16;100.00;96193.34;5021703;28;105395;-62
2023/03/02 03:06:57;;;;;;;50.57;31.80;;;;;;;0.14;100.00;96191.94;5045157;27;103951;-63
2023/03/02 03:09:25;;;;;;;55.27;32.80;;;;;;;0.28;100.00;96197.03;5025613;28;101906;-63
2023/03/02 03:11:56;;;;;;;57.33;33.77;;;;;;;0.25;100.00;96181.75;5030684;27;102831;-62
2023/03/02 03:14:28;;;;;;;55.70;32.30;;;;;;;0.26;100.00;96180.75;5028279;28;104207;-62
2023/03/02 03:16:57;;;;;;;51.27;31.50;;;;;;;0.30;100.00;96175.94;5036199;28;101777;-63
2023/03/02 03:19:27;;;;;;;55.17;33.67;;;;;;;0.29;100.00;96177.75;5029396;28;105482;-62
2023/03/02 03:21:59;;;;;;;55.10;33.17;;;;;;;0.32;100.00;96171.31;5032504;28;101887;-62
2023/03/02 03:24:30;;;;;;;57.70;34.43;;;;;;;0.38;100.00;96181.81;5028868;28;104895;-62
2023/03/02 03:27:00;;;;;;;53.90;32.40;;;;;;;0.40;100.00;96179.81;5028318;28;105071;-62
2023/03/02 03:29:29;;;;;;;57.20;33.73;;;;;;;0.43;100.00;96176.81;5030170;27;101743;-62
2023/03/02 03:32:01;;;;;;;56.87;35.63;;;;;;;0.42;100.00;96182.25;5028910;28;104523;-62
2023/03/02 03:34:30;;;;;;;55.13;32.97;;;;;;;0.38;100.00;96181.81;5028910;28;105082;-62
2023/03/02 03:37:01;;;;;;;59.67;34.53;;;;;;;0.42;100.00;96175.22;5030081;28;101819;-62
2023/03/02 03:39:32;;;;;;;59.50;34.93;;;;;;;0.39;100.00;96177.41;5044354;27;105047;-62
2023/03/02 03:42:01;;;;;;;58.47;33.80;;;;;;;0.46;100.00;96183.47;5044018;27;102047;-63
2023/03/02 03:44:28;;;;;;;55.67;33.77;;;;;;;0.47;100.00;96174.63;5021250;28;104876;-62
2023/03/02 03:46:55;;;;;;;57.60;34.73;;;;;;;0.51;100.00;96178.47;5022785;28;104889;-62
2023/03/02 03:49:22;;;;;;;55.10;33.37;;;;;;;0.48;100.00;96165.78;5028414;28;101983;-62
2023/03/02 03:51:50;;;;;;;57.87;34.27;;;;;;;0.52;100.00;96162.59;5028426;28;104884;-62
2023/03/02 03:54:17;;;;;;;59.63;34.50;;;;;;;0.46;100.00;96170.41;5027926;28;105086;-62
2023/03/02 03:56:46;;;;;;;64.90;35.80;;;;;;;0.50;100.00;96169.03;5028292;28;101831;-63
2023/03/02 03:59:20;;;;;;;59.73;34.90;;;;;;;0.51;100.00;96175.88;5031336;28;103931;-62
2023/03/02 04:01:54;;;;;;;56.67;33.00;;;;;;;0.56;100.00;96168.25;5029036;28;101880;-63
2023/03/02 04:04:26;;;;;;;56.63;33.27;;;;;;;0.62;100.00;96172.69;5030781;28;102570;-62
2023/03/02 04:06:53;;;;;;;58.33;34.47;;;;;;;0.58;100.00;96174.91;5028363;28;105558;-63
2023/03/02 04:09:21;;;;;;;56.73;33.83;;;;;;;0.50;100.00;96174.25;5027538;27;101830;-63
2023/03/02 04:11:55;;;;;;;61.03;34.50;;;;;;;0.37;100.00;96168.94;5028408;28;105397;-62
2023/03/02 04:14:25;;;;;;;71.93;35.53;;;;;;;0.35;100.00;96156.06;5031498;28;105216;-63
2023/03/02 04:16:56;;;;;;;64.50;36.37;;;;;;;0.23;100.00;96160.22;5032589;28;102104;-62
2023/03/02 04:19:25;;;;;;;65.80;36.60;;;;;;;0.16;100.00;96154.13;5029007;28;105025;-62
2023/03/02 04:21:57;;;;;;;60.53;36.13;;;;;;;0.17;100.00;96144.50;5032476;27;102528;-63
2023/03/02 04:24:26;;;;;;;60.60;36.20;;;;;;;0.30;100.00;96152.41;5030574;28;103308;-63
2023/03/02 04:26:58;;;;;;;63.93;34.27;;;;;;;0.38;100.00;96158.28;5030018;28;105484;-63
2023/03/02 04:29:31;;;;;;;60.23;35.13;;;;;;;0.37;100.00;96163.69;5030248;28;102019;-63
2023/03/02 04:31:58;;;;;;;109.40;37.50;;;;;;;0.18;100.00;96159.97;5026084;28;104817;-62
2023/03/02 04:34:27;;;;;;;96.00;36.67;;;;;;;0.10;100.00;96165.38;5022621;28;104852;-62
2023/03/02 04:36:55;;;;;;;114.70;37.63;;;;;;;0.05;100.00;96169.53;5028746;28;101809;-63
2023/03/02 04:39:23;;;;;;;135.80;37.97;;;;;;;-0.07;100.00;96158.00;5027625;28;105081;-63
2023/03/02 04:41:52;;;;;;;63.10;37.30;;;;;;;-0.11;100.00;96170.63;5024103;28;105295;-62
2023/03/02 04:44:20;;;;;;;98.63;39.13;;;;;;;-0.13;100.00;96177.06;5026384;28;101887;-62
2023/03/02 04:46:49;;;;;;;87.87;39.23;;;;;;;-0.17;100.00;96165.34;5032321;27;102805;-62
2023/03/02 04:49:17;;;;;;;66.77;37.27;;;;;;;-0.25;100.00;96173.34;5031984;27;101765;-62
2023/03/02 04:51:47;;;;;;;68.70;36.47;;;;;;;-0.32;100.00;96166.44;5031963;28;101689;-63
2023/03/02 04:54:20;;;;;;;70.27;37.97;;;;;;;-0.20;100.00;96168.34;5030291;28;105369;-62
2023/03/02 04:56:50;;;;;;;55.20;34.03;;;;;;;-0.22;100.00;96173.75;5033771;27;101782;-63
2023/03/02 04:59:21;;;;;;;56.97;33.50;;;;;;;-0.21;100.00;96164.94;5029989;28;105058;-62
2023/03/02 05:01:50;;;;;;;58.97;35.93;;;;;;;-0.24;100.00;96174.94;5029813;28;105809;-62
2023/03/02 05:04:17;;;;;;;58.17;33.73;;;;;;;-0.12;100.00;96173.44;5031678;27;102168;-62
2023/03/02 05:06:47;;;;;;;89.07;36.00;;;;;;;-0.18;100.00;96168.97;5031832;28;105875;-62
2023/03/02 05:09:14;;;;;;;57.00;33.60;;;;;;;-0.28;100.00;96165.88;5024017;28;103310;-62
2023/03/02 05:11:41;;;;;;;54.20;34.00;;;;;;;-0.48;100.00;96164.09;5009908;28;102891;-63
2023/03/02 05:14:12;;;;;;;72.70;34.20;;;;;;;-0.28;100.00;96158.03;5029475;28;102607;-62
2023/03/02 05:16:41;;;;;;;99.23;35.83;;;;;;;-0.50;100.00;96156.44;5027369;28;101710;-62
2023/03/02 05:19:11;;;;;;;56.70;34.10;;;;;;;-0.33;100.00;96157.00;5028636;27;102969;-63
2023/03/02 05:21:39;;;;;;;49.43;33.10;;;;;;;-0.64;100.00;96161.72;5025574;27;105873;-63
2023/03/02 05:24:06;;;;;;;53.63;32.33;;;;;;;-0.71;100.00;96161.66;5029546;28;102014;-62
2023/03/02 05:26:33;;;;;;;122.67;53.83;;;;;;;-0.74;100.00;96162.06;5032041;28;102310;-63
2023/03/02 05:29:00;;;;;;;86.17;45.47;;;;;;;-0.56;100.00;96157.19;5034247;28;101776;-62
2023/03/02 05:31:30;;;;;;;58.90;34.67;;;;;;;-0.66;100.00;96161.91;5030095;28;104101;-63
2023/03/02 05:34:04;;;;;;;55.97;33.37;;;;;;;-0.54;100.00;96167.47;5032351;27;102518;-63
2023/03/02 05:36:33;;;;;;;71.07;36.57;;;;;;;-0.55;100.00;96160.63;5033492;28;101734;-63
2023/03/02 05:39:01;;;;;;;54.03;33.40;;;;;;;-0.59;100.00;96160.19;5032654;28;102501;-62
2023/03/02 05:41:28;;;;;;;55.03;33.87;;;;;;;-0.58;100.00;96171.44;5032303;27;102564;-62
2023/03/02 05:43:55;;;;;;;51.50;33.47;;;;;;;-0.55;100.00;96171.84;5030726;28;101947;-63
2023/03/02 05:46:23;;;;;;;68.20;36.07;;;;;;;-0.64;100.00;96178.22;5031797;28;102607;-63
2023/03/02 05:48:50;;;;;;;53.83;34.63;;;;;;;-0.51;100.00;96178.34;5033720;28;104862;-63
2023/03/02 05:51:17;;;;;;;55.13;34.37;;;;;;;-0.50;100.00;96181.75;5048003;27;104227;-63
2023/03/02 05:53:45;;;;;;;53.87;34.13;;;;;;;-0.39;100.00;96187.28;5032125;28;102716;-64
2023/03/02 05:56:13;;;;;;;55.87;34.70;;;;;;;-0.30;100.00;96180.94;5030761;28;101835;-64
2023/03/02 05:58:40;;;;;;;57.77;33.67;;;;;;;-0.28;100.00;96187.59;5031756;28;102270;-63
2023/03/02 06:01:10;;;;;;;56.10;34.77;;;;;;;-0.55;100.00;96181.50;5031065;28;101702;-63
2023/03/02 06:03:37;;;;;;;56.00;34.57;;;;;;;-0.47;100.00;96182.97;5031800;27;101905;-63
2023/03/02 06:06:04;;;;;;;59.20;37.20;;;;;;;-0.44;100.00;96183.63;5030277;28;105245;-64
2023/03/02 06:08:31;;;;;;;55.80;35.47;;;;;;;-0.42;100.00;96188.44;5031132;27;102556;-63
2023/03/02 06:11:00;;;;;;;54.07;33.57;;;;;;;-0.36;100.00;96189.53;5034810;27;102007;-63
2023/03/02 06:13:27;;;;;;;150.17;35.83;;;;;;;-0.42;100.00;96182.44;5029967;28;105306;-63
2023/03/02 06:15:54;;;;;;;54.47;34.57;;;;;;;-0.44;100.00;96184.41;5030036;28;101882;-63
2023/03/02 06:18:21;;;;;;;54.07;34.43;;;;;;;-0.48;100.00;96193.66;5031515;28;102915;-63
2023/03/02 06:20:50;;;;;;;54.87;34.80;;;;;;;-0.30;100.00;96191.38;5031004;27;102585;-63
2023/03/02 06:23:16;;;;;;;119.93;36.17;;;;;;;-0.39;100.00;96195.09;5029971;28;102036;-63
2023/03/02 06:25:47;;;;;;;55.43;35.30;;;;;;;-0.48;100.00;96190.22;5029756;28;105316;-63
2023/03/02 06:28:18;;;;;;;63.83;35.53;;;;;;;-0.38;100.00;96201.97;5029224;28;105271;-63
2023/03/02 06:30:47;;;;;;;56.20;34.47;;;;;;;-0.27;100.00;96194.41;5030076;28;102032;-63
2023/03/02 06:33:16;;;;;;;59.10;35.40;;;;;;;-0.33;100.00;96199.59;5031731;27;105132;-63
2023/03/02 06:35:43;;;;;;;59.20;35.70;;;;;;;-0.30;100.00;96196.59;5030003;28;102417;-63
2023/03/02 06:38:10;;;;;;;58.07;36.23;;;;;;;-0.24;100.00;96201.06;5029589;28;105424;-63
2023/03/02 06:40:37;;;;;;;56.00;34.40;;;;;;;0.02;100.00;96202.09;5029348;28;104939;-63
2023/03/02 06:43:04;;;;;;;60.53;35.87;;;;;;;0.14;100.00;96203.19;5029460;28;101971;-63
2023/03/02 06:45:33;;;;;;;59.17;35.77;;;;;;;0.17;100.00;96194.16;5029607;28;104867;-63
2023/03/02 06:48:01;;;;;;;58.53;36.23;;;;;;;0.12;100.00;96196.56;5029010;28;103672;-63
2023/03/02 06:50:28;;;;;;;64.47;37.47;;;;;;;0.20;100.00;96199.81;5029690;28;101951;-63
2023/03/02 06:52:55;;;;;;;59.53;35.33;;;;;;;0.24;100.00;96195.00;5029172;28;104865;-63
2023/03/02 06:55:22;;;;;;;55.40;34.80;;;;;;;0.29;100.00;96198.66;5066501;27;105497;-63
2023/03/02 06:57:49;;;;;;;55.30;34.23;;;;;;;0.17;100.00;96202.00;5029426;28;105109;-63
2023/03/02 07:00:23;;;;;;;53.50;35.37;;;;;;;0.37;100.00;96200.31;5030290;27;102694;-63
2023/03/02 07:02:52;;;;;;;54.70;34.00;;;;;;;0.43;100.00;96197.75;5030807;28;101729;-63
2023/03/02 07:05:19;;;;;;;53.80;35.17;;;;;;;0.48;100.00;96200.59;5030758;27;102285;-63
2023/03/02 07:07:47;;;;;;;58.13;36.47;;;;;;;0.55;100.00;96192.81;5030255;27;102439;-63
2023/03/02 07:10:14;;;;;;;61.17;35.60;;;;;;;0.64;100.00;96196.84;5030909;28;102217;-63
2023/03/02 07:12:41;;;;;;;52.40;35.47;;;;;;;0.55;100.00;96201.44;5030688;28;102444;-63
2023/03/02 07:15:12;;;;;;;97.77;34.63;;;;;;;0.65;100.00;96201.06;5028836;28;105285;-63
2023/03/02 07:17:42;;;;;;;50.17;32.57;;;;;;;0.79;100.00;96200.16;5032546;28;102160;-63
2023/03/02 07:20:13;;;;;;;56.80;32.97;;;;;;;0.84;100.00;96193.34;5030065;27;103018;-63
2023/03/02 07:22:41;;;;;;;49.90;32.93;;;;;;;0.92;100.00;96200.19;5030564;27;101644;-63
2023/03/02 07:25:09;;;;;;;51.67;32.40;;;;;;;0.85;100.00;96189.72;5028917;28;105093;-63
2023/03/02 07:27:36;;;;;;;52.30;34.07;;;;;;;0.85;100.00;96186.28;5028409;28;104399;-63
2023/03/02 07:30:03;;;;;;;52.17;33.50;;;;;;;1.08;100.00;96184.16;5028956;28;101816;-63
2023/03/02 07:32:30;;;;;;;55.17;35.50;;;;;;;1.23;100.00;96179.56;5030300;28;102870;-63
2023/03/02 07:34:57;;;;;;;76.93;37.80;;;;;;;1.16;100.00;96191.84;5029849;28;102658;-63
2023/03/02 07:37:26;;;;;;;59.27;38.00;;;;;;;1.15;100.00;96183.16;5032087;28;101846;-63
2023/03/02 07:39:53;;;;;;;57.70;34.97;;;;;;;1.34;100.00;96182.44;5028279;28;103970;-63
2023/03/02 07:42:20;;;;;;;52.20;34.77;;;;;;;1.39;100.00;96185.25;5028365;28;101854;-64
2023/03/02 07:44:52;;;;;;;50.70;33.10;;;;;;;1.33;100.00;96182.63;5027732;27;104913;-63
2023/03/02 07:47:19;;;;;;;49.23;32.63;;;;;;;1.13;100.00;96185.19;5029641;28;102591;-63
2023/03/02 07:49:46;;;;;;;44.27;31.13;;;;;;;1.09;100.00;96183.97;5029928;28;101838;-63
2023/03/02 07:52:13;;;;;;;48.50;33.07;;;;;;;1.44;100.00;96190.72;5028420;28;105270;-63
2023/03/02 07:54:42;;;;;;;50.50;33.57;;;;;;;1.51;100.00;96196.78;5029495;28;102929;-63
2023/03/02 07:57:09;;;;;;;53.90;35.47;;;;;;;1.55;100.00;96194.56;5029649;27;101793;-64
2023/03/02 07:59:36;;;;;;;47.83;33.77;;;;;;;1.39;100.00;96190.50;5031166;28;105255;-63
2023/03/02 08:02:03;;;;;;;50.63;34.47;;;;;;;1.55;100.00;96191.94;5028637;28;101929;-63
2023/03/02 08:04:30;;;;;;;45.03;32.47;;;;;;;1.40;100.00;96199.97;5028379;28;105193;-64
2023/03/02 08:06:57;;;;;;;46.97;32.10;;;;;;;1.70;100.00;96208.28;5029331;28;103217;-63
2023/03/02 08:09:24;;;;;;;49.93;31.93;;;;;;;1.87;100.00;96204.28;5028314;28;101996;-63
2023/03/02 08:11:53;;;;;;;45.23;31.53;;;;;;;1.77;100.00;96209.09;5028050;28;105325;-63
2023/03/02 08:14:20;;;;;;;44.83;31.43;;;;;;;1.63;100.00;96216.13;5029299;28;102931;-63
2023/03/02 08:16:48;;;;;;;45.30;31.00;;;;;;;1.59;100.00;96214.91;5028422;28;101972;-63
2023/03/02 08:19:15;;;;;;;46.10;29.77;;;;;;;1.88;100.00;96219.81;5029506;28;102735;-63
2023/03/02 08:21:42;;;;;;;44.50;31.93;;;;;;;2.39;100.00;96218.16;5032349;28;102531;-63
2023/03/02 08:24:10;;;;;;;44.10;31.17;;;;;;;2.52;100.00;96215.50;5028010;28;105666;-63
2023/03/02 08:26:37;;;;;;;47.43;33.33;;;;;;;2.69;100.00;96221.16;5027692;28;104585;-63
2023/03/02 08:29:06;;;;;;;46.13;32.83;;;;;;;2.87;100.00;96211.63;5029415;27;101800;-63
2023/03/02 08:31:33;;;;;;;39.30;28.33;;;;;;;3.12;100.00;96211.72;5027804;28;103963;-64
2023/03/02 08:34:00;;;;;;;37.77;27.80;;;;;;;3.34;100.00;96205.94;5029100;27;102538;-63
2023/03/02 08:36:27;;;;;;;41.33;27.93;;;;;;;3.52;100.00;96210.50;5027685;28;101876;-63
2023/03/02 08:38:54;;;;;;;34.23;26.30;;;;;;;3.70;100.00;96208.78;5027911;28;105598;-63
2023/03/02 08:41:23;;;;;;;34.47;25.27;;;;;;;3.65;100.00;96199.94;5027562;28;105627;-63
2023/03/02 08:43:52;;;;;;;37.77;25.33;;;;;;;3.75;100.00;96202.88;5032637;27;101896;-64
2023/03/02 08:46:22;;;;;;;32.77;24.23;;;;;;;3.59;100.00;96204.19;5028484;28;103938;-63
2023/03/02 08:48:50;;;;;;;32.63;24.43;;;;;;;3.48;100.00;96199.63;5027697;28;101943;-64
2023/03/02 08:51:19;;;;;;;36.47;26.37;;;;;;;3.78;100.00;96202.47;5029262;28;102539;-64
2023/03/02 08:53:49;;;;;;;33.50;25.10;;;;;;;3.83;100.00;96207.91;5028453;27;102471;-63
2023/03/02 08:56:20;;;;;;;33.33;25.10;;;;;;;3.96;100.00;96215.69;5031653;27;101869;-63
2023/03/02 08:58:48;;;;;;;34.80;26.07;;;;;;;4.32;100.00;96213.19;5035832;28;102341;-63
2023/03/02 09:01:17;;;;;;;33.47;23.77;;;;;;;4.25;100.00;96212.44;5033861;28;105263;-63
2023/03/02 09:03:45;;;;;;;36.23;25.27;;;;;;;4.42;100.00;96206.41;5034175;28;101770;-63
2023/03/02 09:06:12;;;;;;;42.97;26.80;;;;;;;4.60;100.00;96211.72;5039006;28;102734;-63
2023/03/02 09:08:40;;;;;;;34.57;24.53;;;;;;;4.62;100.00;96203.56;5034387;28;101985;-63
2023/03/02 09:11:07;;;;;;;30.20;22.87;;;;;;;4.66;100.00;96208.22;5034530;28;104823;-63
2023/03/02 09:13:35;;;;;;;30.20;22.83;;;;;;;4.77;100.00;96204.84;5033599;28;105446;-63
2023/03/02 09:16:03;;;;;;;31.30;22.93;;;;;;;4.76;100.00;96215.59;5034165;28;101873;-63
2023/03/02 09:18:30;;;;;;;35.17;23.93;;;;;;;4.88;100.00;96213.84;5035632;28;102337;-63
2023/03/02 09:20:59;;;;;;;38.27;24.37;;;;;;;5.05;100.00;96207.78;5035115;27;103114;-63
2023/03/02 09:23:27;;;;;;;35.33;24.03;;;;;;;5.05;100.00;96215.69;5033569;28;102008;-63
2023/03/02 09:25:55;;;;;;;29.83;23.00;;;;;;;5.24;100.00;96213.84;5033765;28;105270;-63
2023/03/02 09:28:22;;;;;;;29.70;22.53;;;;;;;5.34;100.00;96219.41;5038198;28;103076;-63
2023/03/02 09:30:50;;;;;;;28.37;22.13;;;;;;;5.64;100.00;96210.50;5035284;28;102695;-64
2023/03/02 09:33:19;;;;;;;25.83;20.70;;;;;;;5.45;100.00;96216.81;5033298;28;105659;-63
2023/03/02 09:35:46;;;;;;;25.87;19.67;;;;;;;5.54;100.00;96212.03;5033824;28;102379;-63
2023/03/02 09:38:16;;;;;;;30.60;21.33;;;;;;;5.89;100.00;96219.06;5035322;28;101742;-64
2023/03/02 09:41:01;;;;;;;23.93;18.53;;;;;;;5.99;100.00;96221.97;5033337;28;106233;-64
2023/03/02 09:43:44;;;;;;;26.77;20.17;;;;;;;5.87;100.00;96215.06;5033525;28;101856;-63
2023/03/02 09:46:20;;;;;;;26.47;18.97;;;;;;;6.32;100.00;96214.34;5035481;27;102361;-63
2023/03/02 09:49:06;;;;;;;27.17;19.83;;;;;;;6.33;100.00;96215.94;5036515;28;105974;-64
2023/03/02 09:51:39;;;;;;;24.17;19.33;;;;;;;6.48;100.00;96228.72;5034009;28;105652;-63
2023/03/02 09:54:10;;;;;;;24.83;18.93;;;;;;;6.63;100.00;96221.97;5034723;28;102473;-64
2023/03/02 09:56:45;;;;;;;22.97;18.00;;;;;;;6.90;100.00;96222.28;5035440;27;101693;-64
2023/03/02 09:59:23;;;;;;;21.53;17.33;;;;;;;6.57;100.00;96222.88;5033477;28;105236;-64
2023/03/02 10:01:56;;;;;;;22.20;17.63;;;;;;;6.84;100.00;96223.22;5034804;28;102510;-64
2023/03/02 10:04:27;;;;;;;20.93;17.30;;;;;;;6.79;100.00;96225.75;5033650;28;101835;-64
2023/03/02 10:06:57;;;;;;;23.40;17.53;;;;;;;6.91;100.00;96221.25;5032235;27;103842;-64
2023/03/02 10:09:26;;;;;;;25.40;18.03;;;;;;;7.21;100.00;96220.06;5031210;27;102773;-64
2023/03/02 10:12:18;;;;;;;26.03;17.87;;;;;;;7.54;100.00;96219.41;5050404;27;101854;-64
2023/03/02 10:14:52;;;;;;;21.40;17.23;;;;;;;7.65;100.00;96213.25;5029766;28;105531;-64
2023/03/02 10:17:45;;;;;;;38.37;25.53;;;;;;;7.33;100.00;96212.91;5031817;27;101793;-64
2023/03/02 10:20:17;;;;;;;19.67;16.13;;;;;;;7.61;100.00;96209.47;5029949;28;105621;-64
2023/03/02 10:22:48;;;;;;;22.53;16.60;;;;;;;7.32;100.00;96216.56;5029544;28;105483;-64
2023/03/02 10:25:30;;;;;;;24.00;17.77;;;;;;;7.06;100.00;96213.66;5029957;28;101832;-64
2023/03/02 10:28:05;;;;;;;22.57;17.47;;;;;;;6.52;100.00;96219.31;5030026;28;105245;-64
2023/03/02 10:30:37;;;;;;;20.10;16.60;;;;;;;6.76;100.00;96207.72;5029239;28;105266;-63
2023/03/02 10:33:12;;;;;;;22.27;16.63;;;;;;;7.49;100.00;96211.38;5031113;27;102273;-64
2023/03/02 10:35:45;;;;;;;17.50;14.60;;;;;;;7.87;100.00;96214.22;5032881;28;105424;-64
2023/03/02 10:38:16;;;;;;;19.03;15.40;;;;;;;8.24;100.00;96210.13;5030024;28;101797;-64
2023/03/02 10:40:47;;;;;;;17.63;14.57;;;;;;;8.20;100.00;96216.94;5029639;28;105087;-64
2023/03/02 10:43:18;;;;;;;16.03;13.40;;;;;;;8.48;100.00;96206.28;5028531;28;105356;-64
2023/03/02 10:45:46;;;;;;;17.83;13.90;;;;;;;8.76;100.00;96211.47;5029772;28;102074;-64
2023/03/02 10:48:15;;;;;;;17.63;12.97;;;;;;;8.64;100.00;96211.56;5031221;27;102356;-64
2023/03/02 10:50:43;;;;;;;16.80;14.50;;;;;;;8.59;100.00;96210.69;5028984;28;105174;-64
2023/03/02 10:53:17;;;;;;;19.37;14.87;;;;;;;7.94;100.00;96201.63;5029333;28;101991;-64
2023/03/02 10:55:48;;;;;;;18.57;14.87;;;;;;;8.24;100.00;96199.53;5029645;28;102753;-64
2023/03/02 10:58:25;;;;;;;19.57;14.53;;;;;;;8.77;100.00;96202.50;5032308;28;104152;-64
2023/03/02 11:00:57;;;;;;;17.10;14.40;;;;;;;9.21;100.00;96191.69;5030991;27;102370;-64
2023/03/02 11:03:24;;;;;;;18.87;14.03;;;;;;;9.30;100.00;96189.41;5028459;28;105094;-64
2023/03/02 11:05:51;;;;;;;17.00;13.13;;;;;;;9.03;100.00;96194.63;5030871;27;101759;-64
2023/03/02 11:08:20;;;;;;;15.63;12.63;;;;;;;9.37;100.00;96193.47;5029514;28;105155;-64
2023/03/02 11:10:55;;;;;;;16.13;12.40;;;;;;;9.65;100.00;96195.13;5029876;28;102512;-64
2023/03/02 11:13:27;;;;;;;16.33;13.17;;;;;;;9.20;100.00;96192.72;5029104;28;101949;-64
2023/03/02 11:15:58;;;;;;;16.60;13.67;;;;;;;9.79;100.00;96188.38;5030757;28;102320;-64
2023/03/02 11:18:29;;;;;;;15.67;13.57;;;;;;;10.17;100.00;96191.72;5029751;27;102697;-64